Time;durP1;ratioP1;P1;durP2;ratioP2;P2;SDS_P1;SDS_P2;PMS_P1;PMS_P2;Temp;Humidity;BMP_temperature;BMP_pressure;BME280_temperature;BME280_humidity;BME280_pressure;Samples;Min_cycle;Max_cycle;Signal;HPM_P1;HPM_P2
2022/12/07 00:01:36;;;;;;;7.30;6.53;;;5.10;99.90;;;;;;4955659;28;20256;-87
2022/12/07 00:04:06;;;;;;;6.50;5.85;;;5.00;99.90;;;;;;4955854;28;20237;-87
2022/12/07 00:06:36;;;;;;;9.68;6.45;;;5.10;99.90;;;;;;4955691;28;20268;-87
2022/12/07 00:09:08;;;;;;;7.55;6.65;;;5.10;99.90;;;;;;4955622;28;20212;-86
2022/12/07 00:11:36;;;;;;;7.10;5.82;;;5.10;99.90;;;;;;4955862;28;20219;-87
2022/12/07 00:14:08;;;;;;;8.98;6.13;;;5.10;99.90;;;;;;4956161;28;20237;-87
2022/12/07 00:16:37;;;;;;;6.07;5.57;;;5.00;99.90;;;;;;4957566;29;20219;-87
2022/12/07 00:19:05;;;;;;;9.73;7.78;;;5.00;99.90;;;;;;4957418;29;20209;-87
2022/12/07 00:21:35;;;;;;;10.35;7.10;;;5.00;99.90;;;;;;4957724;28;20208;-88
2022/12/07 00:24:05;;;;;;;6.07;5.47;;;5.00;99.90;;;;;;4956890;29;20248;-87
2022/12/07 00:26:36;;;;;;;16.20;6.68;;;5.00;99.90;;;;;;4957217;28;20240;-87
2022/12/07 00:29:06;;;;;;;8.02;7.22;;;5.10;99.90;;;;;;4955876;28;20267;-87
2022/12/07 00:31:38;;;;;;;6.43;5.72;;;5.10;99.90;;;;;;4957183;29;20215;-87
2022/12/07 00:34:08;;;;;;;6.88;6.18;;;5.10;99.90;;;;;;4956840;29;20260;-87
2022/12/07 00:36:36;;;;;;;9.40;6.85;;;5.10;99.90;;;;;;4956822;29;20212;-87
2022/12/07 00:39:05;;;;;;;7.22;6.53;;;5.10;99.90;;;;;;4956971;29;20301;-87
2022/12/07 00:41:35;;;;;;;7.32;6.03;;;5.10;99.90;;;;;;4956659;29;20213;-87
2022/12/07 00:44:03;;;;;;;8.55;6.53;;;5.10;99.90;;;;;;4956370;29;20224;-87
2022/12/07 00:46:32;;;;;;;8.23;7.28;;;5.10;99.90;;;;;;4956605;29;20268;-87
2022/12/07 00:49:00;;;;;;;7.05;6.35;;;5.10;99.90;;;;;;4956209;29;20223;-87
2022/12/07 00:51:28;;;;;;;8.50;6.47;;;5.10;99.90;;;;;;4956525;29;20223;-87
2022/12/07 00:53:57;;;;;;;7.65;6.95;;;5.10;99.90;;;;;;4956263;29;20284;-87
2022/12/07 00:56:26;;;;;;;9.20;7.80;;;5.10;99.90;;;;;;4956886;28;20243;-87
2022/12/07 00:58:59;;;;;;;7.30;6.70;;;5.10;99.90;;;;;;4956547;29;20296;-87
2022/12/07 01:01:30;;;;;;;7.07;6.43;;;5.00;99.90;;;;;;4956574;29;20276;-87
2022/12/07 01:04:00;;;;;;;15.95;9.10;;;5.10;99.90;;;;;;4956371;29;20221;-87
2022/12/07 01:06:30;;;;;;;8.02;7.32;;;5.00;99.90;;;;;;4956761;29;20217;-87
2022/12/07 01:08:58;;;;;;;8.52;7.70;;;5.00;99.90;;;;;;4956096;29;20213;-87
2022/12/07 01:11:30;;;;;;;9.13;8.30;;;5.00;99.90;;;;;;4956418;29;20228;-87
2022/12/07 01:14:01;;;;;;;8.65;7.85;;;5.00;99.90;;;;;;4955813;29;20241;-87
2022/12/07 01:16:31;;;;;;;10.43;9.00;;;5.00;99.90;;;;;;4956089;29;20268;-87
2022/12/07 01:19:00;;;;;;;8.40;7.60;;;5.00;99.90;;;;;;4956136;29;20216;-88
2022/12/07 01:21:32;;;;;;;8.65;7.75;;;5.00;99.90;;;;;;4956019;29;20213;-87
2022/12/07 01:24:00;;;;;;;8.60;7.80;;;4.90;99.90;;;;;;4956042;29;20235;-87
2022/12/07 01:26:29;;;;;;;7.97;7.25;;;4.90;99.90;;;;;;4955732;29;20240;-87
2022/12/07 01:29:00;;;;;;;11.68;9.68;;;4.90;99.90;;;;;;4956116;28;20212;-87
2022/12/07 01:31:29;;;;;;;8.75;7.93;;;4.90;99.90;;;;;;4956031;29;20272;-87
2022/12/07 01:33:59;;;;;;;8.52;7.82;;;5.00;99.90;;;;;;4955847;29;20260;-87
2022/12/07 01:36:30;;;;;;;10.23;8.82;;;5.00;99.90;;;;;;4955898;28;20219;-87
2022/12/07 01:39:00;;;;;;;11.63;9.23;;;4.90;99.90;;;;;;4955593;29;20291;-87
2022/12/07 01:41:31;;;;;;;9.50;8.55;;;4.90;99.90;;;;;;4955825;29;20263;-87
2022/12/07 01:44:17;;;;;;;13.70;10.15;;;5.00;99.90;;;;;;4955693;28;20309;-88
2022/12/07 01:46:48;;;;;;;10.35;9.25;;;5.00;99.90;;;;;;4955692;29;20208;-87
2022/12/07 01:49:22;;;;;;;8.82;8.00;;;5.00;99.90;;;;;;4955415;28;20211;-87
2022/12/07 01:51:55;;;;;;;10.25;9.23;;;4.90;99.90;;;;;;4955449;29;20287;-88
2022/12/07 01:54:23;;;;;;;13.20;10.02;;;5.00;99.90;;;;;;4955270;29;20247;-87
2022/12/07 01:56:55;;;;;;;11.18;10.07;;;4.90;99.90;;;;;;4955397;29;20216;-87
2022/12/07 01:59:27;;;;;;;10.30;8.82;;;4.90;99.90;;;;;;4955577;29;20235;-87
2022/12/07 02:01:56;;;;;;;9.60;8.75;;;4.90;99.90;;;;;;4955866;28;20248;-87
2022/12/07 02:04:25;;;;;;;10.32;9.30;;;4.90;99.90;;;;;;4955085;29;20320;-86
2022/12/07 02:06:55;;;;;;;9.70;8.80;;;4.90;99.90;;;;;;4955081;29;20216;-87
2022/12/07 02:09:24;;;;;;;10.57;9.48;;;4.90;99.90;;;;;;4955362;29;20219;-87
2022/12/07 02:11:54;;;;;;;9.43;8.52;;;4.90;99.90;;;;;;4955423;29;20272;-88
2022/12/07 02:14:23;;;;;;;11.38;9.93;;;4.90;99.90;;;;;;4954920;28;20256;-87
2022/12/07 02:17:08;;;;;;;9.35;8.40;;;4.90;99.90;;;;;;4955005;29;20209;-87
2022/12/07 02:20:22;;;;;;;11.68;10.25;;;4.90;99.90;;;;;;4954671;29;20276;-87
2022/12/07 02:23:05;;;;;;;10.18;9.07;;;4.90;99.90;;;;;;4928920;28;20215;-87
2022/12/07 02:25:54;;;;;;;9.02;8.23;;;4.80;99.90;;;;;;4955025;29;20211;-87
2022/12/07 02:28:30;;;;;;;9.95;8.55;;;4.80;99.90;;;;;;4953058;29;20257;-87
2022/12/07 02:31:03;;;;;;;9.20;8.30;;;4.90;99.90;;;;;;4955021;29;20212;-87
2022/12/07 02:33:37;;;;;;;9.10;8.20;;;4.90;99.90;;;;;;4954425;29;20255;-87
2022/12/07 02:36:11;;;;;;;10.82;8.98;;;4.90;99.90;;;;;;4954748;29;20297;-88
2022/12/07 02:38:45;;;;;;;10.45;8.75;;;4.90;99.90;;;;;;4954634;29;20217;-87
2022/12/07 02:41:19;;;;;;;9.30;8.38;;;4.80;99.90;;;;;;4954808;29;20208;-87
2022/12/07 02:43:51;;;;;;;9.85;8.43;;;4.90;99.90;;;;;;4954614;29;20231;-87
2022/12/07 02:46:26;;;;;;;8.80;7.90;;;4.90;99.90;;;;;;4954654;28;20208;-87
2022/12/07 02:48:55;;;;;;;11.18;9.80;;;4.90;99.90;;;;;;4954577;28;20209;-87
2022/12/07 02:51:24;;;;;;;13.52;7.35;;;4.90;99.90;;;;;;4954341;29;20305;-87
2022/12/07 02:53:52;;;;;;;10.95;9.02;;;4.80;99.90;;;;;;4954503;29;20311;-86
2022/12/07 02:56:29;;;;;;;10.70;7.75;;;4.90;99.90;;;;;;4954109;29;20225;-87
2022/12/07 02:59:09;;;;;;;9.77;8.80;;;4.90;99.90;;;;;;4954359;29;20216;-87
2022/12/07 03:01:47;;;;;;;11.88;8.88;;;4.80;99.90;;;;;;4954588;28;20201;-87
2022/12/07 03:04:26;;;;;;;8.73;7.85;;;4.80;99.90;;;;;;4954679;29;20229;-87
2022/12/07 03:07:01;;;;;;;13.82;9.27;;;4.90;99.90;;;;;;4954327;28;20272;-90
2022/12/07 03:09:36;;;;;;;8.95;8.05;;;4.80;99.90;;;;;;4954509;29;20239;-90
2022/12/07 03:12:11;;;;;;;11.02;8.90;;;4.80;99.90;;;;;;4954385;29;20211;-90
2022/12/07 03:14:46;;;;;;;10.10;8.38;;;4.80;99.90;;;;;;4954352;29;20240;-90
2022/12/07 03:17:22;;;;;;;8.20;7.40;;;4.90;99.90;;;;;;4954391;29;20243;-90
2022/12/07 03:19:53;;;;;;;6.15;5.60;;;4.80;99.90;;;;;;4954549;28;20209;-90
2022/12/07 03:22:24;;;;;;;10.50;8.73;;;4.80;99.90;;;;;;4955496;29;20247;-91
2022/12/07 03:24:56;;;;;;;16.05;9.82;;;4.80;99.90;;;;;;4955328;29;20243;-90
2022/12/07 03:27:28;;;;;;;10.23;8.65;;;4.80;99.90;;;;;;4955652;29;20212;-90
2022/12/07 03:30:03;;;;;;;11.60;9.18;;;4.80;99.90;;;;;;4954579;29;20300;-90
2022/12/07 03:32:38;;;;;;;9.02;8.00;;;4.80;99.90;;;;;;4954504;29;20208;-90
2022/12/07 03:35:12;;;;;;;8.10;7.30;;;4.80;99.90;;;;;;4954407;28;20288;-90
2022/12/07 03:37:46;;;;;;;9.90;8.88;;;4.80;99.90;;;;;;4954221;29;20304;-90
2022/12/07 03:40:19;;;;;;;8.30;7.50;;;4.80;99.90;;;;;;4954044;29;20217;-90
2022/12/07 03:42:48;;;;;;;9.70;8.35;;;4.80;99.90;;;;;;4954642;29;20237;-90
2022/12/07 03:45:17;;;;;;;10.43;8.73;;;4.80;99.90;;;;;;4954594;28;20208;-90
2022/12/07 03:47:54;;;;;;;10.00;8.82;;;4.80;99.90;;;;;;4953962;29;20205;-90
2022/12/07 03:50:29;;;;;;;8.55;7.28;;;4.80;99.90;;;;;;4954283;29;20209;-86
2022/12/07 03:53:02;;;;;;;11.77;8.55;;;4.80;99.90;;;;;;4953924;29;20291;-86
2022/12/07 03:55:34;;;;;;;9.43;7.55;;;4.80;99.90;;;;;;4954189;29;20307;-87
2022/12/07 03:58:07;;;;;;;8.32;7.25;;;4.80;99.90;;;;;;4954168;28;20205;-87
2022/12/07 04:00:35;;;;;;;7.47;6.60;;;4.80;99.90;;;;;;4954104;29;20223;-86
2022/12/07 04:03:05;;;;;;;8.13;7.32;;;4.80;99.90;;;;;;4954642;28;20239;-87
2022/12/07 04:05:33;;;;;;;10.32;7.50;;;4.80;99.90;;;;;;4957075;29;20206;-87
2022/12/07 04:08:02;;;;;;;8.00;7.15;;;4.80;99.90;;;;;;4957101;29;20211;-87
2022/12/07 04:10:30;;;;;;;10.45;7.50;;;4.80;99.90;;;;;;4957565;29;20217;-86
2022/12/07 04:12:58;;;;;;;7.43;6.72;;;4.80;99.90;;;;;;4957257;29;20233;-87
2022/12/07 04:15:27;;;;;;;7.25;6.50;;;4.80;99.90;;;;;;4957004;29;20308;-86
2022/12/07 04:17:55;;;;;;;7.72;6.95;;;4.80;99.90;;;;;;4956990;29;20245;-87
2022/12/07 04:20:25;;;;;;;9.57;8.38;;;4.80;99.90;;;;;;4956936;29;20209;-88
2022/12/07 04:22:53;;;;;;;7.55;6.85;;;4.70;99.90;;;;;;4957478;29;20295;-87
2022/12/07 04:25:22;;;;;;;6.90;6.20;;;4.80;99.90;;;;;;4956924;29;20205;-87
2022/12/07 04:27:50;;;;;;;7.13;6.43;;;4.80;99.90;;;;;;4957318;29;20223;-87
2022/12/07 04:30:19;;;;;;;11.45;8.05;;;4.70;99.90;;;;;;4956896;29;20216;-87
2022/12/07 04:32:47;;;;;;;7.95;7.15;;;4.80;99.90;;;;;;4956885;29;20225;-87
2022/12/07 04:35:15;;;;;;;7.72;7.00;;;4.80;99.90;;;;;;4956864;29;20221;-87
2022/12/07 04:37:45;;;;;;;7.22;6.57;;;4.80;99.90;;;;;;4956845;28;20215;-87
2022/12/07 04:40:14;;;;;;;8.98;6.82;;;4.80;99.90;;;;;;4957071;29;20417;-87
2022/12/07 04:42:42;;;;;;;7.25;6.38;;;4.80;99.90;;;;;;4956464;28;20205;-86
2022/12/07 04:45:11;;;;;;;7.75;6.97;;;4.80;99.90;;;;;;4956862;29;20266;-90
2022/12/07 04:47:39;;;;;;;9.23;7.05;;;4.70;99.90;;;;;;4956427;29;20243;-90
2022/12/07 04:50:08;;;;;;;7.63;6.47;;;4.80;99.90;;;;;;4956698;29;20313;-90
2022/12/07 04:52:37;;;;;;;7.45;5.93;;;4.80;99.90;;;;;;4956595;29;20220;-90
2022/12/07 04:55:07;;;;;;;8.07;6.60;;;4.80;99.90;;;;;;4956181;29;20240;-90
2022/12/07 04:57:35;;;;;;;8.23;7.40;;;4.80;99.90;;;;;;4956077;28;20233;-89
2022/12/07 05:00:04;;;;;;;7.03;6.38;;;4.80;99.90;;;;;;4956581;29;20259;-89
2022/12/07 05:02:33;;;;;;;11.63;8.00;;;4.80;99.90;;;;;;4956728;28;20209;-89
2022/12/07 05:05:01;;;;;;;6.28;5.75;;;4.80;99.90;;;;;;4956003;28;20237;-91
2022/12/07 05:07:29;;;;;;;6.82;6.13;;;4.80;99.90;;;;;;4956016;29;20293;-89
2022/12/07 05:09:58;;;;;;;6.93;6.22;;;4.80;99.90;;;;;;4956277;29;20252;-91
2022/12/07 05:12:28;;;;;;;8.27;6.68;;;4.80;99.90;;;;;;4956131;29;20227;-89
2022/12/07 05:14:56;;;;;;;6.57;5.97;;;4.80;99.90;;;;;;4955443;28;20229;-89
2022/12/07 05:17:24;;;;;;;6.60;6.00;;;4.80;99.90;;;;;;4955829;29;20320;-89
2022/12/07 05:19:53;;;;;;;7.53;6.68;;;4.80;99.90;;;;;;4955954;29;20292;-89
2022/12/07 05:22:21;;;;;;;6.97;6.00;;;4.80;99.90;;;;;;4956165;29;20206;-89
2022/12/07 05:24:49;;;;;;;6.97;6.25;;;4.90;99.90;;;;;;4955797;29;20320;-89
2022/12/07 05:27:17;;;;;;;6.88;5.88;;;4.80;99.90;;;;;;4955715;29;20293;-89
2022/12/07 05:29:47;;;;;;;9.95;6.35;;;4.80;99.90;;;;;;4955755;29;20308;-89
2022/12/07 05:32:16;;;;;;;6.47;5.88;;;4.90;99.90;;;;;;4955731;29;20260;-89
2022/12/07 05:34:44;;;;;;;5.32;4.90;;;4.90;99.90;;;;;;4955777;29;20233;-89
2022/12/07 05:37:12;;;;;;;5.78;5.28;;;4.90;99.90;;;;;;4955310;29;20324;-89
2022/12/07 05:39:42;;;;;;;5.78;5.28;;;4.90;99.90;;;;;;4955835;29;20209;-89
2022/12/07 05:42:14;;;;;;;5.40;4.90;;;4.90;99.90;;;;;;4955811;29;20201;-88
2022/12/07 05:44:44;;;;;;;5.97;5.40;;;4.90;99.90;;;;;;4955210;28;20244;-91
2022/12/07 05:47:15;;;;;;;47.42;6.60;;;4.90;99.90;;;;;;4955519;29;20205;-89
2022/12/07 05:49:43;;;;;;;9.75;5.85;;;4.90;99.90;;;;;;4955682;29;20217;-89
2022/12/07 05:52:12;;;;;;;5.57;5.00;;;4.90;99.90;;;;;;4955808;29;20228;-89
2022/12/07 05:54:40;;;;;;;5.93;5.13;;;4.90;99.90;;;;;;4955442;29;20266;-89
2022/12/07 05:57:08;;;;;;;5.45;4.78;;;4.90;99.90;;;;;;4954710;29;20225;-89
2022/12/07 05:59:36;;;;;;;6.00;5.38;;;4.90;99.90;;;;;;4955341;29;20268;-89
2022/12/07 06:02:07;;;;;;;5.65;4.72;;;4.90;99.90;;;;;;4956191;29;20209;-89
2022/12/07 06:04:39;;;;;;;5.72;5.13;;;4.90;99.90;;;;;;4955630;29;20233;-89
2022/12/07 06:07:08;;;;;;;5.97;5.38;;;4.90;99.90;;;;;;4955347;29;20233;-86
2022/12/07 06:09:37;;;;;;;5.13;4.65;;;4.90;99.90;;;;;;4955170;29;20316;-85
2022/12/07 06:14:52;;;;;;;6.35;5.13;;;4.90;99.90;;;;;;4954733;29;20239;-85
2022/12/07 06:17:21;;;;;;;4.32;4.03;;;4.90;99.90;;;;;;4954708;29;20223;-86
2022/12/07 06:19:50;;;;;;;5.80;5.03;;;4.90;99.90;;;;;;4955132;28;20240;-86
2022/12/07 06:22:19;;;;;;;5.28;4.75;;;5.00;99.90;;;;;;4955018;29;20331;-86
2022/12/07 06:24:47;;;;;;;6.47;5.18;;;4.90;99.90;;;;;;4955200;29;20263;-86
2022/12/07 06:27:15;;;;;;;5.50;5.03;;;5.00;99.90;;;;;;4953145;28;20283;-86
2022/12/07 06:29:44;;;;;;;5.95;5.40;;;5.00;99.90;;;;;;4954488;29;20284;-86
2022/12/07 06:32:12;;;;;;;6.22;4.95;;;5.00;99.90;;;;;;4954275;29;20208;-86
2022/12/07 06:34:43;;;;;;;7.95;5.10;;;5.00;99.90;;;;;;4954521;29;20241;-89
2022/12/07 06:37:13;;;;;;;5.85;4.68;;;5.00;99.90;;;;;;4954597;29;20260;-87
2022/12/07 06:39:41;;;;;;;5.00;4.53;;;4.90;99.90;;;;;;4954704;29;20240;-86
2022/12/07 06:42:09;;;;;;;5.15;4.75;;;5.00;99.90;;;;;;4954967;29;20248;-85
2022/12/07 06:44:38;;;;;;;6.82;5.07;;;5.00;99.90;;;;;;4954284;29;20221;-86
2022/12/07 06:47:07;;;;;;;5.10;4.55;;;4.90;99.90;;;;;;4954670;29;20229;-86
2022/12/07 06:49:56;;;;;;;6.63;4.72;;;5.00;99.90;;;;;;4953948;29;20217;-86
2022/12/07 06:52:25;;;;;;;4.90;4.45;;;5.00;99.90;;;;;;4954898;29;20211;-85
2022/12/07 06:54:54;;;;;;;7.68;5.43;;;5.00;99.90;;;;;;4954639;29;20228;-85
2022/12/07 06:57:23;;;;;;;5.57;4.60;;;5.00;99.90;;;;;;4952347;29;20229;-93
2022/12/07 06:59:52;;;;;;;4.85;4.45;;;5.00;99.90;;;;;;4954703;28;20201;-86
2022/12/07 07:02:20;;;;;;;4.78;4.28;;;5.00;99.90;;;;;;4954323;29;20260;-86
2022/12/07 07:04:48;;;;;;;4.47;4.13;;;5.00;99.90;;;;;;4954308;29;20237;-86
2022/12/07 07:07:16;;;;;;;4.72;4.28;;;5.00;99.90;;;;;;4953729;29;20269;-88
2022/12/07 07:09:46;;;;;;;4.70;4.30;;;5.00;99.90;;;;;;4953883;29;20217;-88
2022/12/07 07:12:14;;;;;;;5.45;4.15;;;5.00;99.90;;;;;;4953801;29;20213;-87
2022/12/07 07:14:43;;;;;;;4.57;3.97;;;5.00;99.90;;;;;;4954259;29;20264;-88
2022/12/07 07:17:11;;;;;;;5.32;4.82;;;5.10;99.90;;;;;;4953686;29;20312;-87
2022/12/07 07:19:40;;;;;;;4.05;3.75;;;5.00;99.90;;;;;;4953665;29;20209;-88
2022/12/07 07:22:09;;;;;;;7.47;4.70;;;5.00;99.90;;;;;;4953301;29;20221;-88
2022/12/07 07:24:37;;;;;;;4.38;3.97;;;5.10;99.90;;;;;;4953784;28;20289;-88
2022/12/07 07:27:07;;;;;;;9.60;5.32;;;5.10;99.90;;;;;;4953656;29;20215;-89
2022/12/07 07:29:35;;;;;;;4.55;4.15;;;5.10;99.90;;;;;;4954207;29;20268;-88
2022/12/07 07:32:04;;;;;;;5.20;4.63;;;5.10;99.90;;;;;;4953968;29;20217;-88
2022/12/07 07:34:34;;;;;;;5.68;5.03;;;5.10;99.90;;;;;;4953846;29;20236;-89
2022/12/07 07:37:02;;;;;;;4.40;4.00;;;5.10;99.90;;;;;;4953617;28;20221;-89
2022/12/07 07:39:30;;;;;;;5.20;4.50;;;5.10;99.90;;;;;;4957432;29;20211;-88
2022/12/07 07:41:58;;;;;;;6.63;4.97;;;5.10;99.90;;;;;;4957676;29;20215;-88
2022/12/07 07:44:28;;;;;;;3.80;3.47;;;5.10;99.90;;;;;;4957176;29;20229;-89
2022/12/07 07:47:02;;;;;;;4.50;4.10;;;5.10;99.90;;;;;;4956974;29;20232;-88
2022/12/07 07:49:30;;;;;;;4.10;3.78;;;5.10;99.90;;;;;;4957534;29;20240;-88
2022/12/07 07:51:58;;;;;;;5.65;4.43;;;5.20;99.90;;;;;;4956689;28;20209;-88
2022/12/07 07:54:26;;;;;;;4.18;3.78;;;5.20;99.90;;;;;;4957440;28;20276;-89
2022/12/07 07:56:55;;;;;;;5.10;4.47;;;5.10;99.90;;;;;;4957142;29;20295;-89
2022/12/07 07:59:24;;;;;;;6.63;4.47;;;5.20;99.90;;;;;;4957367;29;20197;-88
2022/12/07 08:01:54;;;;;;;4.78;4.30;;;5.20;99.90;;;;;;4957414;29;20207;-88
2022/12/07 08:04:23;;;;;;;4.88;4.47;;;5.20;99.90;;;;;;4957463;28;20249;-88
2022/12/07 08:06:51;;;;;;;5.35;4.85;;;5.20;99.90;;;;;;4956911;29;20213;-88
2022/12/07 08:09:20;;;;;;;4.72;4.22;;;5.10;99.90;;;;;;4956933;29;20300;-88
2022/12/07 08:11:48;;;;;;;6.57;5.25;;;5.10;99.90;;;;;;4956541;29;20298;-88
2022/12/07 08:14:16;;;;;;;4.00;3.67;;;5.10;99.90;;;;;;4957020;29;20260;-88
2022/12/07 08:16:44;;;;;;;4.57;4.18;;;5.10;99.90;;;;;;4956678;29;20216;-88
2022/12/07 08:19:14;;;;;;;4.55;4.15;;;5.10;99.90;;;;;;4956607;29;20237;-88
2022/12/07 08:21:43;;;;;;;4.75;4.35;;;5.20;99.90;;;;;;4956942;29;20232;-88
2022/12/07 08:24:11;;;;;;;4.72;4.32;;;5.20;99.90;;;;;;4954371;28;20225;-90
2022/12/07 08:26:39;;;;;;;4.05;3.70;;;5.20;99.90;;;;;;4937309;29;20301;-89
2022/12/07 08:29:08;;;;;;;5.10;4.60;;;5.30;99.90;;;;;;4955552;29;20194;-88
2022/12/07 08:31:36;;;;;;;4.82;4.18;;;5.30;99.90;;;;;;4943396;29;20294;-88
2022/12/07 08:34:05;;;;;;;4.15;3.75;;;5.30;99.90;;;;;;4949833;29;20260;-88
2022/12/07 08:36:34;;;;;;;3.25;3.05;;;5.30;99.90;;;;;;4947651;29;20221;-89
2022/12/07 08:39:03;;;;;;;8.55;5.03;;;5.30;99.90;;;;;;4956194;29;20225;-88
2022/12/07 08:41:51;;;;;;;5.47;4.68;;;5.40;99.90;;;;;;4955540;29;20204;-88
2022/12/07 08:44:19;;;;;;;3.92;3.55;;;5.50;99.90;;;;;;4953396;29;20268;-88
2022/12/07 08:46:52;;;;;;;4.22;3.92;;;5.50;99.90;;;;;;4956085;29;20201;-87
2022/12/07 08:49:25;;;;;;;3.50;3.20;;;5.50;99.90;;;;;;4954861;28;20296;-88
2022/12/07 08:51:56;;;;;;;3.58;3.25;;;5.40;99.90;;;;;;4954264;29;20288;-89
2022/12/07 08:54:24;;;;;;;4.35;3.97;;;5.40;99.90;;;;;;4956339;28;20315;-88
2022/12/07 08:56:54;;;;;;;3.75;3.45;;;5.40;99.90;;;;;;4956062;28;20209;-88
2022/12/07 08:59:28;;;;;;;4.00;3.63;;;5.40;99.90;;;;;;4955954;29;20249;-87
2022/12/07 09:01:57;;;;;;;4.65;4.15;;;5.40;99.90;;;;;;4953358;28;20214;-89
2022/12/07 09:04:26;;;;;;;5.97;4.25;;;5.40;99.90;;;;;;4952377;29;20245;-87
2022/12/07 09:06:56;;;;;;;6.13;4.45;;;5.50;99.90;;;;;;4951353;29;20300;-87
2022/12/07 09:09:25;;;;;;;4.47;3.40;;;5.50;99.90;;;;;;4956206;28;20205;-86
2022/12/07 09:11:53;;;;;;;5.65;3.92;;;5.60;99.90;;;;;;4955208;29;20205;-86
2022/12/07 09:14:21;;;;;;;4.20;3.80;;;5.50;99.90;;;;;;4940763;29;20326;-86
2022/12/07 09:16:50;;;;;;;4.70;4.30;;;5.50;99.90;;;;;;4947692;28;20241;-87
2022/12/07 09:19:18;;;;;;;4.72;3.63;;;5.50;99.90;;;;;;4955620;28;20253;-86
2022/12/07 09:21:46;;;;;;;5.28;3.92;;;5.50;99.90;;;;;;4955764;29;20300;-87
2022/12/07 09:24:16;;;;;;;5.13;4.63;;;5.50;99.90;;;;;;4955640;28;20225;-88
2022/12/07 09:26:44;;;;;;;4.65;4.25;;;5.40;99.90;;;;;;4955323;29;20223;-87
2022/12/07 09:29:13;;;;;;;6.25;5.45;;;5.30;99.90;;;;;;4955473;29;20262;-87
2022/12/07 09:31:41;;;;;;;4.63;4.22;;;5.30;99.90;;;;;;4955137;29;20211;-86
2022/12/07 09:34:10;;;;;;;3.83;3.53;;;5.30;99.90;;;;;;4953169;28;20288;-86
2022/12/07 09:36:39;;;;;;;5.93;3.55;;;5.30;99.90;;;;;;4955190;29;20248;-87
2022/12/07 09:39:07;;;;;;;4.68;4.28;;;5.30;99.90;;;;;;4954819;29;20225;-87
2022/12/07 09:41:39;;;;;;;7.50;4.85;;;5.30;99.90;;;;;;4949957;29;20236;-86
2022/12/07 09:44:12;;;;;;;4.03;3.72;;;5.40;99.90;;;;;;4955291;29;20320;-87
2022/12/07 09:46:42;;;;;;;7.35;5.22;;;5.50;99.90;;;;;;4942181;29;20305;-87
2022/12/07 09:49:14;;;;;;;3.88;3.58;;;5.50;99.90;;;;;;4935993;29;20210;-87
2022/12/07 09:51:42;;;;;;;4.70;4.30;;;5.60;99.90;;;;;;4935971;29;20233;-87
2022/12/07 09:54:14;;;;;;;7.22;4.78;;;5.50;99.90;;;;;;4936136;29;20244;-87
2022/12/07 09:56:45;;;;;;;4.55;4.22;;;5.50;99.90;;;;;;4935746;29;20206;-87
2022/12/07 09:59:17;;;;;;;5.22;4.78;;;5.50;99.90;;;;;;4951632;29;20280;-88
2022/12/07 10:01:48;;;;;;;5.45;4.80;;;5.60;99.90;;;;;;4954971;28;20251;-88
2022/12/07 10:04:19;;;;;;;4.82;4.53;;;5.80;99.90;;;;;;4955174;28;20240;-87
2022/12/07 10:06:47;;;;;;;4.88;4.47;;;5.90;99.90;;;;;;4955093;29;20243;-88
2022/12/07 10:09:19;;;;;;;9.95;6.25;;;6.00;99.90;;;;;;4955224;29;20201;-89
2022/12/07 10:12:01;;;;;;;5.28;4.78;;;6.20;99.90;;;;;;4954979;29;20300;-89
2022/12/07 10:14:31;;;;;;;4.70;4.22;;;6.40;99.90;;;;;;4954319;28;20252;-89
2022/12/07 10:17:41;;;;;;;4.10;3.83;;;6.70;99.90;;;;;;4972258;28;20209;-87
2022/12/07 10:20:15;;;;;;;4.82;4.32;;;7.20;99.90;;;;;;4974090;28;20224;-88
2022/12/07 10:22:56;;;;;;;5.43;4.93;;;7.50;99.90;;;;;;4971035;28;20238;-89
2022/12/07 10:25:29;;;;;;;5.00;4.43;;;7.80;99.90;;;;;;4954625;29;20207;-91
2022/12/07 10:28:14;;;;;;;4.18;3.78;;;8.30;99.90;;;;;;4954636;29;20259;-90
2022/12/07 10:30:58;;;;;;;5.07;3.63;;;8.70;99.90;;;;;;4955066;29;20209;-91
2022/12/07 10:33:33;;;;;;;3.85;3.55;;;9.00;99.90;;;;;;4954804;28;20259;-90
2022/12/07 10:36:16;;;;;;;4.63;3.85;;;8.70;99.90;;;;;;4954909;29;20224;-90
2022/12/07 10:38:47;;;;;;;3.42;3.13;;;9.00;99.90;;;;;;4954364;28;20324;-91
2022/12/07 10:41:16;;;;;;;6.40;4.20;;;9.00;99.90;;;;;;4954440;29;20299;-91
2022/12/07 10:43:54;;;;;;;3.45;3.17;;;8.80;99.90;;;;;;4954805;28;20229;-91
2022/12/07 10:46:51;;;;;;;4.40;4.00;;;8.20;99.90;;;;;;4954845;29;20272;-91
2022/12/07 10:49:54;;;;;;;3.80;3.50;;;7.60;99.90;;;;;;4949871;29;20208;-90
2022/12/07 10:52:41;;;;;;;4.35;4.00;;;6.90;99.90;;;;;;4954518;29;20226;-92
2022/12/07 10:55:21;;;;;;;4.55;4.18;;;6.70;99.90;;;;;;4954617;29;20217;-90
2022/12/07 10:58:04;;;;;;;6.65;4.18;;;6.40;99.90;;;;;;4954105;29;20299;-90
2022/12/07 11:00:42;;;;;;;6.35;4.57;;;6.30;99.90;;;;;;4954305;29;20224;-91
2022/12/07 11:03:38;;;;;;;5.05;4.43;;;6.20;99.90;;;;;;4954292;28;20257;-90
2022/12/07 11:06:20;;;;;;;11.80;5.85;;;6.20;99.90;;;;;;4951910;28;20240;-90
2022/12/07 11:09:13;;;;;;;5.32;4.28;;;6.10;99.90;;;;;;4954463;29;20232;-91
2022/12/07 11:11:47;;;;;;;4.05;3.67;;;6.10;99.90;;;;;;4944774;28;20208;-91
2022/12/07 11:14:23;;;;;;;4.85;4.45;;;6.10;99.90;;;;;;4957585;28;20279;-91
2022/12/07 11:16:59;;;;;;;2.67;2.47;;;6.10;99.90;;;;;;4958316;29;20239;-91
2022/12/07 11:19:41;;;;;;;4.05;3.70;;;6.10;99.90;;;;;;4957869;29;20292;-90
2022/12/07 11:22:17;;;;;;;4.10;3.70;;;6.10;99.90;;;;;;4958031;29;20252;-90
2022/12/07 11:24:55;;;;;;;4.43;4.03;;;6.10;99.90;;;;;;4957934;28;20224;-91
2022/12/07 11:27:31;;;;;;;5.68;5.10;;;6.30;99.90;;;;;;4957963;29;20271;-90
2022/12/07 11:30:10;;;;;;;5.50;5.00;;;6.40;99.90;;;;;;4957804;29;20208;-90
2022/12/07 11:32:50;;;;;;;4.00;3.00;;;6.40;99.90;;;;;;4957917;29;20208;-91
2022/12/07 11:35:24;;;;;;;4.05;3.65;;;6.40;99.90;;;;;;4957906;28;20259;-90
2022/12/07 11:37:59;;;;;;;4.20;3.72;;;6.30;99.90;;;;;;4957648;29;20239;-92
2022/12/07 11:40:30;;;;;;;4.13;3.55;;;6.20;99.90;;;;;;4957786;29;20263;-91
2022/12/07 11:43:03;;;;;;;2.78;2.58;;;6.20;99.90;;;;;;4957351;28;20304;-91
2022/12/07 11:45:34;;;;;;;3.58;3.28;;;6.10;99.90;;;;;;4960081;29;20273;-91
2022/12/07 11:48:11;;;;;;;2.78;2.58;;;6.00;99.90;;;;;;4957869;29;20209;-91
2022/12/07 11:50:42;;;;;;;4.00;3.63;;;5.90;99.90;;;;;;4957689;29;20240;-90
2022/12/07 11:53:19;;;;;;;5.28;3.92;;;5.90;99.90;;;;;;4957820;28;20253;-91
2022/12/07 11:55:52;;;;;;;3.40;3.10;;;5.90;99.90;;;;;;4957371;29;20209;-92
2022/12/07 11:58:41;;;;;;;4.35;4.05;;;6.40;99.90;;;;;;4957273;29;20209;-91
2022/12/07 12:01:20;;;;;;;5.55;4.38;;;6.90;99.90;;;;;;4957009;29;20229;-91
2022/12/07 12:03:53;;;;;;;4.57;4.15;;;7.30;99.90;;;;;;4956935;28;20392;-91
2022/12/07 12:06:22;;;;;;;5.40;4.88;;;7.80;99.90;;;;;;4959739;29;20268;-90
2022/12/07 12:08:56;;;;;;;4.38;3.88;;;8.40;99.90;;;;;;4957940;29;20212;-91
2022/12/07 12:12:08;;;;;;;3.85;3.53;;;8.70;99.90;;;;;;4957467;28;20274;-90
2022/12/07 12:15:15;;;;;;;5.00;4.05;;;8.80;99.90;;;;;;4956844;28;20229;-91
2022/12/07 12:18:19;;;;;;;6.07;5.25;;;9.30;99.90;;;;;;4957086;29;20209;-93
2022/12/07 12:20:53;;;;;;;3.85;3.55;;;9.30;99.90;;;;;;4956956;28;20229;-91
2022/12/07 12:23:24;;;;;;;14.95;8.63;;;9.60;99.90;;;;;;4957475;28;20288;-91
2022/12/07 12:25:55;;;;;;;3.83;3.47;;;9.60;99.90;;;;;;4956906;29;20261;-90
2022/12/07 12:28:30;;;;;;;3.58;3.15;;;9.50;99.90;;;;;;4956730;29;20213;-90
2022/12/07 12:31:14;;;;;;;6.25;5.35;;;9.60;99.90;;;;;;4956795;28;20197;-89
2022/12/07 12:33:46;;;;;;;5.80;4.82;;;9.70;99.90;;;;;;4956939;28;20256;-90
2022/12/07 12:36:23;;;;;;;5.18;4.68;;;9.90;99.90;;;;;;4956859;28;20213;-91
2022/12/07 12:39:08;;;;;;;6.22;5.63;;;9.90;99.90;;;;;;4956700;29;20213;-91
2022/12/07 12:42:06;;;;;;;3.88;3.58;;;10.10;99.90;;;;;;4956050;29;20221;-91
2022/12/07 12:44:43;;;;;;;7.22;5.82;;;10.20;99.90;;;;;;4956665;28;20324;-90
2022/12/07 12:47:43;;;;;;;8.95;6.82;;;10.10;99.90;;;;;;4956328;29;20239;-90
2022/12/07 12:50:21;;;;;;;6.22;5.03;;;9.80;99.90;;;;;;4956729;29;20296;-90
2022/12/07 12:53:02;;;;;;;5.82;4.63;;;9.80;99.90;;;;;;4956360;28;20212;-91
2022/12/07 12:56:03;;;;;;;6.18;5.22;;;9.70;99.90;;;;;;4956359;29;20309;-91
2022/12/07 12:58:37;;;;;;;4.70;4.22;;;9.30;99.90;;;;;;4955990;29;20244;-91
2022/12/07 13:01:48;;;;;;;4.45;4.03;;;9.00;99.90;;;;;;4956262;29;20228;-91
2022/12/07 13:04:32;;;;;;;7.13;5.53;;;9.10;99.90;;;;;;4956548;28;20233;-92
2022/12/07 13:07:00;;;;;;;4.35;3.67;;;9.10;99.90;;;;;;4956342;29;20216;-94
2022/12/07 13:09:33;;;;;;;4.88;4.13;;;9.10;99.90;;;;;;4956356;29;20304;-94
2022/12/07 13:12:05;;;;;;;16.70;8.07;;;9.30;99.90;;;;;;4956173;29;20352;-93
2022/12/07 13:14:59;;;;;;;7.55;6.18;;;9.30;99.90;;;;;;4956130;28;20225;-94
2022/12/07 13:18:02;;;;;;;5.72;4.22;;;9.00;99.90;;;;;;4955979;29;20213;-92
2022/12/07 13:20:55;;;;;;;6.72;5.22;;;8.60;99.90;;;;;;4897209;29;20230;-93
2022/12/07 13:23:30;;;;;;;3.88;3.58;;;8.70;99.90;;;;;;4896921;29;20231;-93
2022/12/07 13:26:19;;;;;;;4.38;4.00;;;8.70;99.90;;;;;;4937710;28;20208;-93
2022/12/07 13:28:49;;;;;;;3.80;3.50;;;8.70;99.90;;;;;;4955531;28;20240;-93